Time;durP1;ratioP1;P1;durP2;ratioP2;P2;SDS_P1;SDS_P2;PMS_P1;PMS_P2;Temp;Humidity;BMP_temperature;BMP_pressure;BME280_temperature;BME280_humidity;BME280_pressure;Samples;Min_cycle;Max_cycle;Signal;HPM_P1;HPM_P2
2022/04/06 00:02:00;;;;;;;1.93;1.37;;;19.00;99.90;;;;;;5074106;28;20182;-69
2022/04/06 00:04:28;;;;;;;2.37;1.50;;;19.00;99.90;;;;;;5073976;28;20224;-69
2022/04/06 00:06:56;;;;;;;1.73;1.20;;;19.00;99.90;;;;;;5073669;28;20179;-70
2022/04/06 00:09:23;;;;;;;2.20;1.47;;;18.90;99.90;;;;;;5072457;28;20654;-69
2022/04/06 00:11:51;;;;;;;2.47;1.50;;;19.00;99.90;;;;;;5073927;28;20183;-69
2022/04/06 00:14:19;;;;;;;2.77;1.37;;;19.10;99.90;;;;;;5073360;28;20224;-69
2022/04/06 00:16:47;;;;;;;5.97;1.40;;;19.10;99.90;;;;;;5073452;28;20176;-69
2022/04/06 00:19:15;;;;;;;4.30;1.90;;;19.30;99.90;;;;;;5073658;28;20183;-68
2022/04/06 00:21:42;;;;;;;2.57;1.63;;;19.60;99.90;;;;;;5073555;28;20191;-70
2022/04/06 00:24:10;;;;;;;5.30;1.60;;;19.50;99.90;;;;;;5073258;28;20286;-68
2022/04/06 00:26:38;;;;;;;2.80;1.30;;;19.50;99.90;;;;;;5073268;28;20194;-68
2022/04/06 00:29:06;;;;;;;4.47;1.73;;;19.30;99.90;;;;;;5073658;28;20204;-67
2022/04/06 00:31:33;;;;;;;2.67;1.47;;;19.30;99.90;;;;;;5073349;28;20199;-68
2022/04/06 00:34:02;;;;;;;2.67;1.90;;;19.10;99.90;;;;;;5073412;28;20238;-68
2022/04/06 00:36:30;;;;;;;3.23;1.73;;;19.30;99.90;;;;;;5073188;28;20184;-68
2022/04/06 00:38:57;;;;;;;6.27;1.80;;;19.40;99.90;;;;;;5073126;28;20180;-68
2022/04/06 00:41:25;;;;;;;2.77;1.87;;;19.70;99.90;;;;;;5070822;28;20184;-68
2022/04/06 00:44:17;;;;;;;2.47;1.47;;;19.70;99.90;;;;;;5073140;28;20234;-68
2022/04/06 00:46:46;;;;;;;3.83;1.50;;;19.80;99.90;;;;;;5072953;28;20188;-68
2022/04/06 00:49:15;;;;;;;3.90;1.43;;;19.90;99.90;;;;;;5073223;28;20195;-68
2022/04/06 00:51:48;;;;;;;4.87;1.50;;;20.00;99.90;;;;;;5071294;28;20215;-68
2022/04/06 00:54:20;;;;;;;2.03;1.10;;;20.00;99.90;;;;;;5072311;28;20219;-67
2022/04/06 00:56:49;;;;;;;3.97;1.47;;;19.80;99.90;;;;;;5062485;28;20213;-68
2022/04/06 00:59:19;;;;;;;3.50;1.30;;;19.40;99.90;;;;;;5072944;28;20180;-68
2022/04/06 01:01:47;;;;;;;3.83;1.37;;;19.30;99.90;;;;;;5072605;28;20196;-68
2022/04/06 01:04:17;;;;;;;3.10;1.20;;;19.40;99.90;;;;;;5072704;28;20212;-67
2022/04/06 01:06:47;;;;;;;4.97;1.83;;;19.40;99.90;;;;;;5072838;28;20539;-68
2022/04/06 01:09:16;;;;;;;3.10;1.03;;;19.50;99.90;;;;;;5072824;28;20180;-67
2022/04/06 01:11:49;;;;;;;3.03;1.30;;;19.40;99.90;;;;;;5071365;28;20246;-68
2022/04/06 01:14:20;;;;;;;4.77;1.40;;;19.50;99.90;;;;;;5052522;28;20227;-67
2022/04/06 01:17:01;;;;;;;7.77;1.67;;;19.70;99.90;;;;;;5052576;28;20196;-68
2022/04/06 01:19:37;;;;;;;5.50;1.47;;;19.70;99.90;;;;;;5052427;28;20185;-68
2022/04/06 01:22:10;;;;;;;5.50;1.60;;;19.60;99.90;;;;;;5052584;28;20181;-68
2022/04/06 01:24:38;;;;;;;3.07;1.37;;;19.50;99.90;;;;;;5051272;28;20595;-67
2022/04/06 01:27:07;;;;;;;4.27;1.40;;;19.60;99.90;;;;;;5051060;28;20173;-68
2022/04/06 01:29:35;;;;;;;2.27;1.00;;;19.40;99.90;;;;;;5052350;28;20242;-69
2022/04/06 01:32:10;;;;;;;3.07;1.50;;;19.30;99.90;;;;;;5052382;28;20180;-68
2022/04/06 01:34:38;;;;;;;3.57;1.20;;;19.30;99.90;;;;;;5052215;28;20204;-69
2022/04/06 01:37:07;;;;;;;2.57;1.37;;;19.30;99.90;;;;;;5052277;28;20523;-68
2022/04/06 01:39:36;;;;;;;7.50;1.67;;;19.10;99.90;;;;;;5052141;28;20188;-67
2022/04/06 01:42:06;;;;;;;2.67;1.10;;;19.00;99.90;;;;;;5052178;28;20173;-69
2022/04/06 01:44:34;;;;;;;3.27;1.13;;;19.10;99.90;;;;;;5052077;28;20735;-69
2022/04/06 01:47:04;;;;;;;4.47;1.20;;;19.10;99.90;;;;;;5052208;28;20264;-69
2022/04/06 01:52:18;;;;;;;4.57;1.70;;;19.00;99.90;;;;;;5072210;28;20187;-67
2022/04/06 01:55:10;;;;;;;2.87;1.20;;;18.90;99.90;;;;;;5072010;28;20203;-67
2022/04/06 01:57:39;;;;;;;4.17;1.67;;;18.70;99.90;;;;;;5068512;28;20198;-67
2022/04/06 02:00:15;;;;;;;2.87;1.20;;;18.70;99.90;;;;;;5071531;28;20172;-68
2022/04/06 02:02:44;;;;;;;1.63;1.30;;;18.80;99.90;;;;;;5071317;28;20179;-68
2022/04/06 02:05:12;;;;;;;4.20;1.47;;;18.90;99.90;;;;;;5071344;28;20215;-68
2022/04/06 02:07:40;;;;;;;3.60;1.00;;;19.00;99.90;;;;;;5070328;28;21094;-69
2022/04/06 02:10:08;;;;;;;3.90;1.33;;;18.90;99.90;;;;;;5071454;28;20270;-68
2022/04/06 02:12:41;;;;;;;2.23;1.30;;;19.00;99.90;;;;;;5071540;28;20191;-68
2022/04/06 02:15:14;;;;;;;2.80;1.00;;;18.90;99.90;;;;;;5071268;28;20224;-68
2022/04/06 02:17:42;;;;;;;2.13;1.10;;;18.90;99.90;;;;;;5071441;28;20187;-68
2022/04/06 02:20:11;;;;;;;1.77;1.00;;;18.90;99.90;;;;;;5071474;28;20291;-69
2022/04/06 02:22:38;;;;;;;2.93;1.07;;;18.80;99.90;;;;;;5071845;28;20263;-69
2022/04/06 02:25:07;;;;;;;1.53;1.00;;;18.80;99.90;;;;;;5071582;28;20211;-69
2022/04/06 02:27:42;;;;;;;2.10;1.03;;;18.90;99.90;;;;;;5071566;28;20169;-66
2022/04/06 02:30:11;;;;;;;1.70;0.90;;;18.90;99.90;;;;;;5071728;28;20180;-68
2022/04/06 02:32:38;;;;;;;4.03;0.90;;;18.80;99.90;;;;;;5070279;28;20549;-68
2022/04/06 02:35:07;;;;;;;3.07;1.30;;;18.80;99.90;;;;;;5071576;28;20621;-68
2022/04/06 02:37:35;;;;;;;1.87;1.00;;;18.80;99.90;;;;;;5071431;28;20179;-68
2022/04/06 02:40:04;;;;;;;2.23;1.10;;;18.80;99.90;;;;;;5071464;28;20211;-68
2022/04/06 02:42:32;;;;;;;1.80;1.20;;;18.70;99.90;;;;;;5071573;28;20172;-68
2022/04/06 02:45:00;;;;;;;4.50;1.30;;;18.50;99.90;;;;;;5071286;28;20216;-66
2022/04/06 02:47:27;;;;;;;2.60;1.13;;;18.40;99.90;;;;;;5071451;28;20175;-69
2022/04/06 02:49:55;;;;;;;3.03;1.13;;;18.30;99.90;;;;;;5071330;28;20184;-68
2022/04/06 02:52:23;;;;;;;1.73;1.40;;;18.30;99.90;;;;;;5071478;28;20168;-67
2022/04/06 02:54:52;;;;;;;4.17;1.57;;;18.30;99.90;;;;;;5071363;28;20300;-68
2022/04/06 02:57:19;;;;;;;2.47;1.50;;;18.40;99.90;;;;;;5071319;28;20183;-68
2022/04/06 02:59:47;;;;;;;3.43;1.30;;;18.50;99.90;;;;;;5071381;28;20168;-68
2022/04/06 03:02:15;;;;;;;1.60;1.30;;;18.20;99.90;;;;;;5071412;28;20180;-68
2022/04/06 03:04:42;;;;;;;2.70;1.30;;;18.20;99.90;;;;;;5074357;28;20210;-68
2022/04/06 03:07:10;;;;;;;2.33;1.40;;;18.20;99.90;;;;;;5074935;28;20305;-68
2022/04/06 03:09:38;;;;;;;3.43;1.90;;;18.20;99.90;;;;;;5074922;28;20176;-68
2022/04/06 03:12:06;;;;;;;5.07;1.67;;;18.20;99.90;;;;;;5074990;28;20192;-68
2022/04/06 03:14:35;;;;;;;2.13;1.90;;;18.20;99.90;;;;;;5074621;28;20388;-67
2022/04/06 03:17:03;;;;;;;2.43;2.07;;;18.20;99.90;;;;;;5075014;28;20373;-67
2022/04/06 03:19:31;;;;;;;2.00;1.80;;;18.10;99.90;;;;;;5074496;28;20191;-69
2022/04/06 03:21:59;;;;;;;3.97;2.03;;;18.00;99.90;;;;;;5074935;28;20194;-69
2022/04/06 03:24:26;;;;;;;2.53;1.73;;;18.00;99.90;;;;;;5074547;28;20274;-68
2022/04/06 03:26:54;;;;;;;5.10;2.30;;;18.20;99.90;;;;;;5074224;28;20185;-69
2022/04/06 03:29:22;;;;;;;2.93;1.70;;;18.10;99.90;;;;;;5073050;28;20217;-68
2022/04/06 03:31:50;;;;;;;3.30;2.13;;;18.10;99.90;;;;;;5074512;28;20230;-68
2022/04/06 03:34:18;;;;;;;4.63;2.17;;;18.00;99.90;;;;;;5074233;28;20229;-68
2022/04/06 03:36:46;;;;;;;4.10;2.20;;;18.00;99.90;;;;;;5074527;28;20267;-68
2022/04/06 03:39:13;;;;;;;8.17;2.00;;;18.00;99.90;;;;;;5074452;28;20217;-70
2022/04/06 03:41:41;;;;;;;3.10;2.17;;;18.00;99.90;;;;;;5074377;28;20204;-68
2022/04/06 03:44:09;;;;;;;3.60;2.27;;;17.90;99.90;;;;;;5072756;28;20234;-68
2022/04/06 03:46:37;;;;;;;5.30;2.40;;;18.10;99.90;;;;;;5072256;28;20188;-69
2022/04/06 03:49:04;;;;;;;6.93;2.83;;;18.00;99.90;;;;;;5073700;28;20183;-68
2022/04/06 03:51:32;;;;;;;4.47;2.37;;;18.10;99.90;;;;;;5073714;28;20194;-69
2022/04/06 03:54:00;;;;;;;4.10;2.70;;;18.00;99.90;;;;;;5052984;28;20188;-69
2022/04/06 03:56:27;;;;;;;3.47;2.43;;;17.90;99.90;;;;;;5057308;28;20253;-69
2022/04/06 03:58:55;;;;;;;2.73;2.50;;;17.90;99.90;;;;;;5074060;28;20175;-69
2022/04/06 04:01:23;;;;;;;3.90;2.67;;;18.00;99.90;;;;;;5073657;28;20659;-69
2022/04/06 04:03:51;;;;;;;3.77;2.97;;;18.10;99.90;;;;;;5073946;28;20199;-69
2022/04/06 04:06:19;;;;;;;6.77;2.47;;;18.10;99.90;;;;;;5072169;28;20195;-69
2022/04/06 04:08:46;;;;;;;5.00;3.13;;;18.00;99.90;;;;;;5073712;28;20182;-70
2022/04/06 04:11:14;;;;;;;6.83;3.13;;;18.00;99.90;;;;;;5072997;28;20190;-69
2022/04/06 04:13:42;;;;;;;4.00;2.93;;;18.00;99.90;;;;;;5070318;28;20219;-69
2022/04/06 04:16:09;;;;;;;6.23;2.63;;;18.10;99.90;;;;;;5072744;28;20184;-69
2022/04/06 04:18:37;;;;;;;4.87;2.57;;;17.90;99.90;;;;;;5072412;28;20181;-69
2022/04/06 04:23:50;;;;;;;2.73;2.30;;;17.90;99.90;;;;;;5082154;28;20297;-69
2022/04/06 04:26:18;;;;;;;4.10;2.80;;;18.00;99.90;;;;;;5085412;28;20208;-70
2022/04/06 04:28:46;;;;;;;8.40;4.50;;;17.90;99.90;;;;;;5093922;28;20211;-68
2022/04/06 04:31:14;;;;;;;24.70;9.60;;;17.90;99.90;;;;;;5081539;28;20168;-68
2022/04/06 04:33:42;;;;;;;9.17;3.57;;;18.10;99.90;;;;;;5092527;28;20172;-70
2022/04/06 04:36:09;;;;;;;6.07;3.00;;;18.00;99.90;;;;;;5088113;28;20210;-69
2022/04/06 04:38:37;;;;;;;5.97;2.60;;;17.90;99.90;;;;;;5072634;28;20191;-70
2022/04/06 04:41:09;;;;;;;5.23;3.30;;;17.90;99.90;;;;;;5072629;28;20194;-69
2022/04/06 04:43:37;;;;;;;3.97;3.23;;;17.80;99.90;;;;;;5069292;28;20188;-68
2022/04/06 04:46:05;;;;;;;3.83;2.77;;;17.80;99.90;;;;;;5067099;28;20188;-68
2022/04/06 04:48:34;;;;;;;5.13;2.97;;;17.70;99.90;;;;;;5071676;28;20184;-70
2022/04/06 04:51:01;;;;;;;4.40;2.60;;;17.70;99.90;;;;;;5071173;28;20231;-69
2022/04/06 04:53:30;;;;;;;3.53;2.40;;;17.70;99.90;;;;;;5072435;28;20175;-69
2022/04/06 04:55:58;;;;;;;3.50;2.37;;;17.70;99.90;;;;;;5072949;28;20184;-69
2022/04/06 04:58:29;;;;;;;3.53;3.00;;;17.70;99.90;;;;;;5071973;28;20205;-69
2022/04/06 05:00:57;;;;;;;5.57;2.63;;;17.60;99.90;;;;;;5072189;28;20180;-69
2022/04/06 05:03:24;;;;;;;5.27;2.47;;;17.60;99.90;;;;;;5072503;28;20203;-68
2022/04/06 05:05:53;;;;;;;3.33;2.40;;;17.60;99.90;;;;;;5072726;28;20237;-69
2022/04/06 05:08:21;;;;;;;5.37;2.70;;;17.60;99.90;;;;;;5072319;28;20180;-69
2022/04/06 05:10:50;;;;;;;3.43;2.70;;;17.70;99.90;;;;;;5072770;28;20629;-69
2022/04/06 05:13:20;;;;;;;3.83;2.87;;;17.70;99.90;;;;;;5071674;28;20215;-69
2022/04/06 05:15:48;;;;;;;4.40;3.00;;;17.80;99.90;;;;;;5072185;28;20195;-69
2022/04/06 05:18:16;;;;;;;4.03;3.07;;;17.70;99.90;;;;;;5071506;28;20196;-69
2022/04/06 05:20:43;;;;;;;5.90;2.77;;;17.80;99.90;;;;;;5070940;28;20521;-69
2022/04/06 05:23:11;;;;;;;4.43;2.43;;;17.80;99.90;;;;;;5072319;28;20657;-69
2022/04/06 05:25:39;;;;;;;5.27;2.97;;;17.80;99.90;;;;;;5070635;28;20624;-69
2022/04/06 05:28:08;;;;;;;6.17;3.20;;;17.70;99.90;;;;;;5072193;28;20184;-69
2022/04/06 05:30:38;;;;;;;3.50;2.47;;;17.70;99.90;;;;;;5072204;28;20180;-69
2022/04/06 05:33:06;;;;;;;3.73;2.10;;;17.70;99.90;;;;;;5070850;28;20183;-69
2022/04/06 05:35:34;;;;;;;7.07;3.07;;;17.80;99.90;;;;;;5072224;28;20305;-69
2022/04/06 05:38:01;;;;;;;5.23;2.50;;;17.70;99.90;;;;;;5071642;28;20597;-69
2022/04/06 05:40:29;;;;;;;4.90;2.87;;;17.80;99.90;;;;;;5072410;28;20262;-69
2022/04/06 05:42:58;;;;;;;4.50;2.50;;;17.80;99.90;;;;;;5072234;28;20589;-69
2022/04/06 05:45:26;;;;;;;5.43;2.73;;;17.70;99.90;;;;;;5072003;28;20207;-68
2022/04/06 05:47:53;;;;;;;3.10;2.47;;;17.70;99.90;;;;;;5071959;28;20188;-69
2022/04/06 05:50:21;;;;;;;5.17;2.67;;;17.70;99.90;;;;;;5071999;28;20180;-69
2022/04/06 05:52:49;;;;;;;5.53;2.93;;;17.70;99.90;;;;;;5071754;28;20189;-69
2022/04/06 05:56:01;;;;;;;4.47;2.50;;;17.70;99.90;;;;;;5072016;28;20212;-69
2022/04/06 05:58:53;;;;;;;7.10;3.00;;;17.80;99.90;;;;;;5083981;28;20330;-70
2022/04/06 06:01:21;;;;;;;4.63;2.83;;;17.80;99.90;;;;;;5068680;28;20721;-69
2022/04/06 06:03:49;;;;;;;4.60;2.77;;;17.80;99.90;;;;;;5072186;28;20182;-71
2022/04/06 06:06:16;;;;;;;3.60;2.40;;;17.70;99.90;;;;;;5073116;28;20199;-70
2022/04/06 06:08:44;;;;;;;4.97;2.30;;;17.80;99.90;;;;;;5073078;28;20175;-70
2022/04/06 06:11:12;;;;;;;3.53;2.53;;;17.70;99.90;;;;;;5072720;28;20194;-70
2022/04/06 06:13:40;;;;;;;5.87;2.80;;;17.70;99.90;;;;;;5072091;28;20219;-72
2022/04/06 06:16:07;;;;;;;4.20;2.10;;;17.70;99.90;;;;;;5072583;28;20187;-69
2022/04/06 06:18:35;;;;;;;4.63;2.57;;;17.70;99.90;;;;;;5072900;28;20560;-70
2022/04/06 06:21:04;;;;;;;3.60;2.30;;;17.70;99.90;;;;;;5073348;28;20210;-70
2022/04/06 06:23:32;;;;;;;2.40;2.20;;;17.70;99.90;;;;;;5073175;28;20177;-70
2022/04/06 06:26:00;;;;;;;2.60;1.87;;;17.80;99.90;;;;;;5073057;28;20282;-69
2022/04/06 06:28:28;;;;;;;4.10;1.60;;;17.70;99.90;;;;;;5073201;28;20286;-70
2022/04/06 06:30:55;;;;;;;1.73;1.40;;;17.80;99.90;;;;;;5073262;28;20246;-70
2022/04/06 06:33:24;;;;;;;6.87;1.80;;;17.70;99.90;;;;;;5073354;28;20190;-70
2022/04/06 06:35:52;;;;;;;2.30;1.40;;;17.70;99.90;;;;;;5073126;28;20184;-70
2022/04/06 06:38:20;;;;;;;2.40;1.30;;;17.80;99.90;;;;;;5074100;28;20625;-70
2022/04/06 06:40:48;;;;;;;3.40;1.60;;;17.80;99.90;;;;;;5077137;28;20672;-70
2022/04/06 06:43:19;;;;;;;1.70;1.03;;;17.80;99.90;;;;;;5076963;28;20217;-70
2022/04/06 06:45:46;;;;;;;1.47;1.00;;;17.80;99.90;;;;;;5077019;28;20211;-69
2022/04/06 06:48:14;;;;;;;3.80;1.63;;;17.70;99.90;;;;;;5076865;28;20264;-70
2022/04/06 06:50:42;;;;;;;1.80;1.03;;;17.60;99.90;;;;;;5076965;28;20185;-70
2022/04/06 06:53:09;;;;;;;3.80;1.30;;;17.50;99.90;;;;;;5076789;28;20187;-69
2022/04/06 06:55:37;;;;;;;2.13;1.40;;;17.50;99.90;;;;;;5076966;28;20225;-70
2022/04/06 06:58:05;;;;;;;1.33;1.10;;;17.50;99.90;;;;;;5076615;28;20174;-71
2022/04/06 07:00:33;;;;;;;2.67;1.30;;;17.50;99.90;;;;;;5076757;28;20255;-71
2022/04/06 07:03:01;;;;;;;1.87;1.20;;;17.60;99.90;;;;;;5076817;28;20172;-70
2022/04/06 07:05:28;;;;;;;2.13;1.30;;;17.60;99.90;;;;;;5076538;28;20701;-71
2022/04/06 07:08:01;;;;;;;2.80;1.10;;;17.60;99.90;;;;;;5076426;28;20184;-71
2022/04/06 07:10:29;;;;;;;3.70;1.20;;;17.50;99.90;;;;;;5076598;28;20190;-70
2022/04/06 07:12:57;;;;;;;2.10;1.33;;;17.60;99.90;;;;;;5076482;28;20184;-70
2022/04/06 07:15:26;;;;;;;2.23;1.23;;;17.50;99.90;;;;;;5074889;28;20219;-70
2022/04/06 07:17:58;;;;;;;3.13;1.20;;;17.60;99.90;;;;;;5076381;28;20172;-69
2022/04/06 07:20:29;;;;;;;1.77;1.30;;;17.60;99.90;;;;;;5076368;28;20180;-71
2022/04/06 07:22:57;;;;;;;1.80;1.40;;;17.60;99.90;;;;;;5076133;28;20184;-69
2022/04/06 07:25:24;;;;;;;3.57;1.53;;;17.60;99.90;;;;;;5076141;28;20206;-71
2022/04/06 07:27:52;;;;;;;2.80;1.30;;;17.60;99.90;;;;;;5076084;28;20168;-69
2022/04/06 07:30:20;;;;;;;2.60;1.30;;;17.60;99.90;;;;;;5076196;28;20670;-71
2022/04/06 07:32:48;;;;;;;3.03;1.43;;;17.60;99.90;;;;;;5076271;28;20202;-70
2022/04/06 07:35:19;;;;;;;3.83;1.60;;;17.60;99.90;;;;;;5076039;28;20194;-69
2022/04/06 07:37:49;;;;;;;2.37;1.73;;;17.60;99.90;;;;;;5076045;28;20283;-70
2022/04/06 07:40:19;;;;;;;2.10;1.77;;;17.60;99.90;;;;;;5075954;28;20263;-69
2022/04/06 07:42:49;;;;;;;5.23;2.03;;;17.60;99.90;;;;;;5076422;28;20172;-69
2022/04/06 07:45:18;;;;;;;7.57;2.30;;;17.60;99.90;;;;;;5075844;28;20254;-72
2022/04/06 07:47:48;;;;;;;3.60;2.30;;;17.70;99.90;;;;;;5076041;28;20180;-70
2022/04/06 07:50:18;;;;;;;3.70;2.70;;;17.60;99.90;;;;;;5075172;28;20228;-69
2022/04/06 07:52:46;;;;;;;3.30;2.43;;;17.60;99.90;;;;;;5075593;28;20241;-70
2022/04/06 07:55:15;;;;;;;3.30;2.60;;;17.60;99.90;;;;;;5075692;28;20187;-70
2022/04/06 07:57:42;;;;;;;4.73;2.80;;;17.60;99.90;;;;;;5075554;28;20176;-70
2022/04/06 08:00:16;;;;;;;4.47;3.00;;;17.60;99.90;;;;;;5075792;28;20204;-69
2022/04/06 08:02:45;;;;;;;3.87;3.13;;;17.60;99.90;;;;;;5075674;28;20184;-70
2022/04/06 08:05:13;;;;;;;5.10;3.40;;;17.60;99.90;;;;;;5076160;28;20672;-71
2022/04/06 08:07:43;;;;;;;3.67;3.23;;;17.60;99.90;;;;;;5075401;28;20180;-71
2022/04/06 08:10:15;;;;;;;4.63;3.50;;;17.60;99.90;;;;;;5075270;28;20187;-72
2022/04/06 08:12:43;;;;;;;4.93;3.67;;;17.60;99.90;;;;;;5074039;28;20578;-71
2022/04/06 08:15:11;;;;;;;4.60;4.13;;;17.60;99.90;;;;;;5075113;28;20259;-70
2022/04/06 08:17:42;;;;;;;6.07;4.13;;;17.50;99.90;;;;;;5075324;28;20184;-69
2022/04/06 08:20:12;;;;;;;4.73;4.20;;;17.60;99.90;;;;;;5075250;28;20195;-71
2022/04/06 08:22:46;;;;;;;7.13;4.23;;;17.60;99.90;;;;;;5075554;28;20626;-69
2022/04/06 08:25:17;;;;;;;4.90;3.67;;;17.60;99.90;;;;;;5075397;28;20242;-70
2022/04/06 08:27:50;;;;;;;4.87;3.80;;;17.60;99.90;;;;;;5075350;28;20201;-70
2022/04/06 08:30:53;;;;;;;7.67;4.50;;;17.60;99.90;;;;;;5074941;28;20226;-71
2022/04/06 08:33:21;;;;;;;4.90;3.97;;;17.50;99.90;;;;;;5075212;28;20541;-70
2022/04/06 08:36:06;;;;;;;8.83;4.60;;;17.60;99.90;;;;;;5075052;28;20204;-70
2022/04/06 08:38:33;;;;;;;5.70;4.10;;;17.50;99.90;;;;;;5074764;28;20224;-70
2022/04/06 08:41:01;;;;;;;5.80;4.57;;;17.60;99.90;;;;;;5074929;28;20180;-70
2022/04/06 08:43:44;;;;;;;4.77;4.03;;;17.50;99.90;;;;;;5074548;28;20183;-71
2022/04/06 08:46:12;;;;;;;4.63;4.17;;;17.50;99.90;;;;;;5073618;28;20560;-71
2022/04/06 08:48:40;;;;;;;5.47;4.20;;;17.50;99.90;;;;;;5074579;28;20179;-72
2022/04/06 08:51:10;;;;;;;7.37;4.07;;;17.60;99.90;;;;;;5074598;28;20289;-70
2022/04/06 08:53:41;;;;;;;5.77;3.67;;;17.60;99.90;;;;;;5073214;28;20176;-69
2022/04/06 08:56:12;;;;;;;8.57;3.90;;;17.50;99.90;;;;;;5074506;28;20189;-72
2022/04/06 08:58:40;;;;;;;5.40;4.27;;;17.40;99.90;;;;;;5074496;28;20657;-71
2022/04/06 09:01:09;;;;;;;4.53;3.60;;;17.40;99.90;;;;;;5073703;28;20349;-70
2022/04/06 09:03:37;;;;;;;5.27;3.70;;;17.40;99.90;;;;;;5074168;28;20190;-70
2022/04/06 09:06:10;;;;;;;6.47;3.67;;;17.40;99.90;;;;;;5074035;28;20329;-70
2022/04/06 09:08:44;;;;;;;4.20;3.37;;;17.40;99.90;;;;;;5074370;28;20259;-70
2022/04/06 09:11:22;;;;;;;4.63;2.77;;;17.40;99.90;;;;;;5074109;28;20167;-68
2022/04/06 09:14:00;;;;;;;4.37;2.90;;;17.30;99.90;;;;;;5073729;28;20223;-70
2022/04/06 09:16:32;;;;;;;5.77;3.20;;;17.30;99.90;;;;;;5074538;28;20180;-70
2022/04/06 09:19:11;;;;;;;7.40;3.40;;;17.30;99.90;;;;;;5076576;28;20293;-69
2022/04/06 09:21:50;;;;;;;4.60;2.90;;;17.20;99.90;;;;;;5076853;28;20200;-69
2022/04/06 09:24:20;;;;;;;4.70;3.13;;;17.20;99.90;;;;;;5078129;28;20244;-69
2022/04/06 09:27:01;;;;;;;6.83;3.40;;;17.20;99.90;;;;;;5076683;28;20224;-70
2022/04/06 09:29:28;;;;;;;5.30;2.73;;;17.20;99.90;;;;;;5076840;28;20179;-68
2022/04/06 09:32:05;;;;;;;5.63;2.63;;;17.20;99.90;;;;;;5076924;28;20176;-69
2022/04/06 09:34:33;;;;;;;4.33;2.43;;;17.20;99.90;;;;;;5072476;28;20190;-70
2022/04/06 09:37:20;;;;;;;4.23;2.23;;;17.10;99.90;;;;;;5073064;28;20187;-69
2022/04/06 09:39:47;;;;;;;6.50;2.27;;;17.10;99.90;;;;;;5073554;28;20187;-69
2022/04/06 09:42:25;;;;;;;4.27;1.87;;;17.10;99.90;;;;;;5073561;28;20206;-69
2022/04/06 09:47:52;;;;;;;1.90;1.60;;;17.10;99.90;;;;;;5074021;28;20218;-70
2022/04/06 09:50:22;;;;;;;1.57;1.40;;;17.10;99.90;;;;;;5073538;28;20345;-70
2022/04/06 09:52:58;;;;;;;2.90;1.27;;;17.00;99.90;;;;;;5073292;28;20176;-69
2022/04/06 09:55:25;;;;;;;3.90;1.30;;;17.00;99.90;;;;;;5073215;28;20175;-69
2022/04/06 09:57:56;;;;;;;4.90;1.40;;;17.10;99.90;;;;;;5073144;28;20176;-69
2022/04/06 10:00:26;;;;;;;2.53;1.40;;;17.10;99.90;;;;;;5071964;28;20191;-69
2022/04/06 10:03:05;;;;;;;3.73;1.50;;;17.10;99.90;;;;;;5073263;28;20182;-69
2022/04/06 10:05:34;;;;;;;3.47;1.20;;;17.10;99.90;;;;;;5073417;28;20243;-68
2022/04/06 10:08:06;;;;;;;2.47;1.50;;;17.10;99.90;;;;;;5071966;28;20265;-69
2022/04/06 10:10:38;;;;;;;3.47;1.10;;;17.10;99.90;;;;;;5073161;28;20188;-70
2022/04/06 10:13:10;;;;;;;2.43;1.23;;;17.10;99.90;;;;;;5073105;28;20172;-70
2022/04/06 10:15:40;;;;;;;2.97;1.20;;;17.10;99.90;;;;;;5073041;28;20413;-69
2022/04/06 10:18:08;;;;;;;3.83;1.10;;;17.10;99.90;;;;;;5073136;28;20211;-69
2022/04/06 10:20:53;;;;;;;5.13;1.20;;;17.10;99.90;;;;;;5071938;28;20192;-68
2022/04/06 10:23:48;;;;;;;1.83;1.13;;;17.10;99.90;;;;;;5073132;28;20179;-68
2022/04/06 10:26:24;;;;;;;2.27;1.07;;;17.10;99.90;;;;;;5073438;28;20188;-68
2022/04/06 10:28:51;;;;;;;4.57;1.10;;;17.10;99.90;;;;;;5073269;28;20164;-68
2022/04/06 10:31:30;;;;;;;1.37;1.13;;;17.10;99.90;;;;;;5071708;28;20180;-69
2022/04/06 10:34:27;;;;;;;3.17;1.20;;;17.10;99.90;;;;;;5073103;28;20183;-68
2022/04/06 10:37:11;;;;;;;2.93;2.13;;;17.10;99.90;;;;;;5072863;28;20661;-68
2022/04/06 10:39:57;;;;;;;1.20;0.90;;;17.10;99.90;;;;;;5073119;28;20176;-69
2022/04/06 10:42:36;;;;;;;1.20;1.07;;;17.10;99.90;;;;;;5073036;28;20172;-69
2022/04/06 10:45:24;;;;;;;1.13;1.00;;;17.10;99.90;;;;;;5073039;28;20685;-69
2022/04/06 10:48:19;;;;;;;1.07;0.80;;;17.10;99.90;;;;;;5072633;28;20664;-69
2022/04/06 10:50:48;;;;;;;3.60;1.20;;;17.10;99.90;;;;;;5072803;28;20515;-69
2022/04/06 10:53:21;;;;;;;1.90;1.00;;;17.10;99.90;;;;;;5072719;28;20225;-69
2022/04/06 10:56:12;;;;;;;2.30;1.23;;;17.10;99.90;;;;;;5072621;28;20260;-69
2022/04/06 10:58:57;;;;;;;1.33;1.17;;;17.10;99.90;;;;;;5072646;28;20179;-69
2022/04/06 11:01:32;;;;;;;2.87;1.20;;;17.10;99.90;;;;;;5072766;28;20183;-69
2022/04/06 11:04:03;;;;;;;1.57;1.17;;;17.10;99.90;;;;;;5072556;28;20542;-69
2022/04/06 11:07:00;;;;;;;2.57;0.90;;;17.20;99.90;;;;;;5072740;28;20622;-69
2022/04/06 11:12:35;;;;;;;2.37;1.20;;;17.20;99.90;;;;;;5072881;28;20278;-69
2022/04/06 11:15:02;;;;;;;5.33;0.97;;;17.10;99.90;;;;;;5072410;28;20221;-69
2022/04/06 11:17:41;;;;;;;1.37;1.00;;;17.10;99.90;;;;;;5072617;28;20679;-69
2022/04/06 11:20:19;;;;;;;2.17;1.20;;;17.10;99.90;;;;;;5072785;28;20667;-69
2022/04/06 11:22:54;;;;;;;1.20;1.10;;;17.10;99.90;;;;;;5072643;28;20242;-69
2022/04/06 11:25:23;;;;;;;2.00;1.30;;;17.10;99.90;;;;;;5074868;28;20242;-69
2022/04/06 11:27:51;;;;;;;2.70;1.87;;;17.10;99.90;;;;;;5075986;28;20225;-69
2022/04/06 11:30:20;;;;;;;4.53;1.50;;;17.10;99.90;;;;;;5076025;28;20176;-69
2022/04/06 11:32:58;;;;;;;2.83;1.20;;;17.10;99.90;;;;;;5075934;28;20172;-69
2022/04/06 11:35:31;;;;;;;2.90;1.20;;;17.10;99.90;;;;;;5076101;28;20240;-69
2022/04/06 11:37:59;;;;;;;1.10;1.00;;;17.10;99.90;;;;;;5075792;28;20187;-69
2022/04/06 11:40:27;;;;;;;1.63;1.07;;;17.10;99.90;;;;;;5075766;28;20237;-69
2022/04/06 11:42:57;;;;;;;1.80;1.17;;;17.10;99.90;;;;;;5075906;28;20172;-69
2022/04/06 11:45:33;;;;;;;1.97;1.30;;;17.00;99.90;;;;;;5075560;28;20235;-69
2022/04/06 11:48:11;;;;;;;2.67;1.03;;;17.10;99.90;;;;;;5075774;28;20612;-69
2022/04/06 11:50:40;;;;;;;2.03;1.50;;;17.10;99.90;;;;;;5075729;28;20258;-69
2022/04/06 11:53:18;;;;;;;3.10;1.20;;;17.10;99.90;;;;;;5075513;28;20782;-69
2022/04/06 11:55:54;;;;;;;2.03;1.20;;;17.10;99.90;;;;;;5075537;28;20217;-69
2022/04/06 11:58:41;;;;;;;2.90;1.20;;;17.10;99.90;;;;;;5075498;28;20645;-69
2022/04/06 12:01:14;;;;;;;1.87;0.90;;;17.20;99.90;;;;;;5075535;28;20200;-69
2022/04/06 12:03:44;;;;;;;1.10;1.00;;;17.20;99.90;;;;;;5075449;28;20253;-68
2022/04/06 12:06:17;;;;;;;1.20;0.90;;;17.20;99.90;;;;;;5075309;28;20210;-69
2022/04/06 12:08:46;;;;;;;5.10;1.10;;;17.20;99.90;;;;;;5074118;28;20213;-69
2022/04/06 12:11:14;;;;;;;1.20;0.90;;;17.20;99.90;;;;;;5075317;28;20182;-69
2022/04/06 12:13:44;;;;;;;1.17;1.07;;;17.30;99.90;;;;;;5074993;28;20214;-70
2022/04/06 12:16:15;;;;;;;1.27;1.17;;;17.30;99.90;;;;;;5074281;28;20567;-69
2022/04/06 12:18:44;;;;;;;4.63;1.27;;;17.30;99.90;;;;;;5073770;28;20646;-68
2022/04/06 12:21:26;;;;;;;1.53;0.90;;;17.40;99.90;;;;;;5073727;28;20214;-68
2022/04/06 12:23:54;;;;;;;2.70;1.20;;;17.40;99.90;;;;;;5071820;28;20176;-68
2022/04/06 12:26:23;;;;;;;2.17;1.30;;;17.40;99.90;;;;;;5074197;28;20268;-69
2022/04/06 12:28:59;;;;;;;2.87;1.37;;;17.40;99.90;;;;;;5074201;28;20657;-67
2022/04/06 12:31:48;;;;;;;1.53;1.03;;;17.40;99.90;;;;;;5074318;28;20259;-68
2022/04/06 12:34:37;;;;;;;3.57;1.13;;;17.50;99.90;;;;;;5072703;28;20212;-68
2022/04/06 12:39:54;;;;;;;5.93;1.40;;;17.50;99.90;;;;;;5074506;28;20199;-69
2022/04/06 12:42:23;;;;;;;3.43;1.20;;;17.50;99.90;;;;;;5074653;28;20214;-68
2022/04/06 12:45:06;;;;;;;4.20;1.03;;;17.60;99.90;;;;;;5074552;28;20302;-66
2022/04/06 12:47:34;;;;;;;4.50;1.20;;;17.60;99.90;;;;;;5074269;28;20188;-67
2022/04/06 12:50:36;;;;;;;2.33;1.10;;;17.60;99.90;;;;;;5073526;28;20188;-68
2022/04/06 12:53:12;;;;;;;4.63;1.30;;;17.60;99.90;;;;;;5061981;28;20196;-68
2022/04/06 12:55:40;;;;;;;1.77;1.20;;;17.60;99.90;;;;;;5074273;28;20672;-68
2022/04/06 12:58:34;;;;;;;1.93;1.30;;;17.70;99.90;;;;;;5074278;28;20650;-68
2022/04/06 13:01:01;;;;;;;3.23;1.40;;;17.70;99.90;;;;;;5073344;28;20190;-68
2022/04/06 13:03:28;;;;;;;4.80;1.63;;;17.70;99.90;;;;;;5074275;28;20672;-68
2022/04/06 13:05:56;;;;;;;4.83;1.37;;;17.70;99.90;;;;;;5074255;28;20219;-68
2022/04/06 13:08:23;;;;;;;3.53;1.80;;;17.70;99.90;;;;;;5073871;28;20184;-67
2022/04/06 13:10:50;;;;;;;6.40;1.50;;;17.70;99.90;;;;;;5074266;28;20207;-68
2022/04/06 13:13:17;;;;;;;6.60;1.77;;;17.70;99.90;;;;;;5073976;28;20250;-67
2022/04/06 13:15:45;;;;;;;8.10;1.47;;;17.70;99.90;;;;;;5073820;28;20294;-68
2022/04/06 13:18:14;;;;;;;3.87;1.20;;;17.80;99.90;;;;;;5073774;28;20209;-68
2022/04/06 13:20:41;;;;;;;6.93;2.00;;;17.80;99.90;;;;;;5073954;28;20176;-68
2022/04/06 13:23:08;;;;;;;6.97;1.43;;;17.80;99.90;;;;;;5074009;28;20191;-68